createdAt,value
2022-11-29T00:00:58.417Z,72.80
2022-11-29T00:03:25.479Z,74.95
2022-11-29T00:05:52.042Z,91.45
2022-11-29T00:08:19.745Z,84.80
2022-11-29T00:10:46.395Z,74.40
2022-11-29T00:13:12.910Z,79.65
2022-11-29T00:15:40.141Z,74.38
2022-11-29T00:18:07.579Z,84.55
2022-11-29T00:20:35.390Z,92.15
2022-11-29T00:23:02.066Z,96.35
2022-11-29T00:25:28.538Z,98.55
2022-11-29T00:27:54.924Z,77.97
2022-11-29T00:30:21.459Z,86.70
2022-11-29T00:32:48.171Z,79.90
2022-11-29T00:35:14.919Z,90.30
2022-11-29T00:37:41.299Z,84.70
2022-11-29T00:40:08.542Z,85.95
2022-11-29T00:42:34.956Z,83.20
2022-11-29T00:45:01.432Z,77.88
2022-11-29T00:47:28.945Z,86.60
2022-11-29T00:49:55.383Z,88.10
2022-11-29T00:52:21.783Z,86.22
2022-11-29T00:54:48.257Z,113.88
2022-11-29T00:57:14.738Z,100.05
2022-11-29T00:59:41.140Z,128.02
2022-11-29T01:02:07.589Z,96.80
2022-11-29T01:04:34.049Z,84.07
2022-11-29T01:07:00.610Z,84.40
2022-11-29T01:09:27.088Z,93.68
2022-11-29T01:11:53.637Z,102.07
2022-11-29T01:14:20.143Z,97.35
2022-11-29T01:16:46.652Z,71.70
2022-11-29T01:19:13.091Z,90.68
2022-11-29T01:21:39.584Z,96.22
2022-11-29T01:24:06.112Z,85.50
2022-11-29T01:26:33.023Z,72.30
2022-11-29T01:29:00.093Z,70.25
2022-11-29T01:31:30.192Z,64.43
2022-11-29T01:33:58.643Z,70.88
2022-11-29T01:36:25.955Z,70.38
2022-11-29T01:38:52.543Z,66.50
2022-11-29T01:41:22.471Z,72.18
2022-11-29T01:44:05.180Z,67.30
2022-11-29T01:46:34.941Z,68.68
2022-11-29T01:49:10.752Z,66.65
2022-11-29T01:51:40.343Z,59.75
2022-11-29T01:54:08.531Z,63.40
2022-11-29T01:56:35.210Z,57.85
2022-11-29T01:59:06.106Z,59.65
2022-11-29T02:01:34.576Z,60.27
2022-11-29T02:04:01.592Z,62.83
2022-11-29T02:06:29.542Z,66.38
2022-11-29T02:08:56.279Z,65.05
2022-11-29T02:11:42.819Z,59.67
2022-11-29T02:14:34.607Z,56.67
2022-11-29T02:17:22.989Z,59.50
2022-11-29T02:19:58.596Z,48.00
2022-11-29T02:22:30.925Z,51.65
2022-11-29T02:25:27.763Z,57.38
2022-11-29T02:28:10.375Z,53.90
2022-11-29T02:31:01.640Z,55.00
2022-11-29T02:33:53.024Z,51.13
2022-11-29T02:36:35.971Z,53.95
2022-11-29T02:39:25.422Z,53.88
2022-11-29T02:42:10.510Z,53.65
2022-11-29T02:44:49.242Z,53.97
2022-11-29T02:47:28.779Z,49.92
2022-11-29T02:50:09.844Z,45.75
2022-11-29T02:52:50.225Z,51.42
2022-11-29T02:55:39.628Z,50.55
2022-11-29T02:58:17.804Z,44.05
2022-11-29T03:00:58.226Z,49.63
2022-11-29T03:03:37.137Z,46.47
2022-11-29T03:06:20.426Z,45.05
2022-11-29T03:09:13.234Z,45.85
2022-11-29T03:12:00.522Z,45.53
2022-11-29T03:14:38.267Z,42.72
2022-11-29T03:17:17.074Z,46.28
2022-11-29T03:20:17.635Z,46.17
2022-11-29T03:22:48.178Z,48.45
2022-11-29T03:25:25.806Z,60.75
2022-11-29T03:28:03.114Z,52.00
2022-11-29T03:30:32.458Z,49.70
2022-11-29T03:33:26.644Z,62.78
2022-11-29T03:36:07.302Z,57.58
2022-11-29T03:38:42.639Z,61.05
2022-11-29T03:41:27.792Z,57.45
2022-11-29T03:44:00.179Z,54.00
2022-11-29T03:46:42.378Z,60.35
2022-11-29T03:49:26.513Z,46.83
2022-11-29T03:51:58.562Z,43.83
2022-11-29T03:54:38.814Z,57.53
2022-11-29T03:57:06.715Z,43.63
2022-11-29T04:00:06.323Z,67.65
2022-11-29T04:03:19.048Z,64.63
2022-11-29T04:06:10.942Z,39.75
2022-11-29T04:08:46.413Z,44.85
2022-11-29T04:11:28.088Z,48.17
2022-11-29T04:14:16.629Z,80.65
2022-11-29T04:17:15.342Z,38.63
2022-11-29T04:19:57.111Z,45.95
2022-11-29T04:22:51.450Z,54.92
2022-11-29T04:26:10.398Z,54.42
2022-11-29T04:29:11.373Z,45.17
2022-11-29T04:31:59.635Z,57.50
2022-11-29T04:35:05.421Z,81.00
2022-11-29T04:37:52.308Z,91.78
2022-11-29T04:40:45.227Z,45.88
2022-11-29T04:43:39.324Z,70.50
2022-11-29T04:46:31.757Z,38.22
2022-11-29T04:49:18.962Z,56.65
2022-11-29T04:52:22.625Z,54.92
2022-11-29T04:54:57.051Z,64.75
2022-11-29T04:57:39.303Z,59.92
2022-11-29T05:00:35.074Z,47.00
2022-11-29T05:03:16.696Z,51.80
2022-11-29T05:05:46.891Z,58.60
2022-11-29T05:08:37.680Z,42.78
2022-11-29T05:11:50.879Z,61.67
2022-11-29T05:14:32.412Z,42.15
2022-11-29T05:17:23.936Z,54.15
2022-11-29T05:20:21.418Z,46.55
2022-11-29T05:23:03.980Z,59.95
2022-11-29T05:25:37.379Z,40.03
2022-11-29T05:28:12.843Z,38.05
2022-11-29T05:31:16.778Z,64.32
2022-11-29T05:34:04.283Z,32.58
2022-11-29T05:37:01.802Z,61.13
2022-11-29T05:40:14.454Z,35.55
2022-11-29T05:42:52.790Z,59.40
2022-11-29T05:45:33.070Z,75.38
2022-11-29T05:48:07.047Z,50.25
2022-11-29T05:50:40.897Z,100.50
2022-11-29T05:53:49.784Z,44.30
2022-11-29T05:56:40.336Z,54.05
2022-11-29T05:59:15.746Z,65.10
2022-11-29T06:02:12.661Z,42.88
2022-11-29T06:05:00.459Z,45.05
2022-11-29T06:07:32.132Z,53.63
2022-11-29T06:10:17.660Z,41.13
2022-11-29T06:13:00.272Z,38.60
2022-11-29T06:15:43.235Z,34.35
2022-11-29T06:18:15.677Z,35.00
2022-11-29T06:21:16.876Z,41.83
2022-11-29T06:24:01.698Z,34.13
2022-11-29T06:26:46.937Z,30.00
2022-11-29T06:29:49.406Z,28.60
2022-11-29T06:32:40.159Z,35.63
2022-11-29T06:35:15.202Z,28.05
2022-11-29T06:37:54.665Z,38.90
2022-11-29T06:40:21.610Z,36.55
2022-11-29T06:42:48.927Z,31.45
2022-11-29T06:45:16.353Z,59.88
2022-11-29T06:47:47.634Z,43.70
2022-11-29T06:50:32.423Z,46.53
2022-11-29T06:53:07.079Z,49.33
2022-11-29T06:56:04.529Z,35.55
2022-11-29T06:59:05.106Z,51.08
2022-11-29T07:01:55.223Z,37.53
2022-11-29T07:04:46.357Z,36.47
2022-11-29T07:07:20.290Z,34.10
2022-11-29T07:09:49.387Z,30.00
2022-11-29T07:12:17.460Z,34.20
2022-11-29T07:14:45.147Z,45.28
2022-11-29T07:17:20.562Z,35.97
2022-11-29T07:20:19.697Z,31.45
2022-11-29T07:22:55.344Z,28.65
2022-11-29T07:25:44.519Z,28.90
2022-11-29T07:28:32.223Z,24.13
2022-11-29T07:31:12.189Z,29.60
2022-11-29T07:34:02.243Z,32.65
2022-11-29T07:36:48.403Z,42.22
2022-11-29T07:39:41.775Z,35.65
2022-11-29T07:42:30.930Z,42.90
2022-11-29T07:45:00.439Z,40.47
2022-11-29T07:47:29.087Z,57.65
2022-11-29T07:49:59.107Z,34.22
2022-11-29T07:52:25.515Z,40.90
2022-11-29T07:54:52.003Z,29.73
2022-11-29T07:57:18.418Z,31.85
2022-11-29T07:59:45.101Z,29.88
2022-11-29T08:02:12.155Z,37.17
2022-11-29T08:04:44.426Z,32.67
2022-11-29T08:07:11.384Z,32.05
2022-11-29T08:09:37.798Z,21.17
2022-11-29T08:12:04.479Z,23.20
2022-11-29T08:14:32.888Z,20.50
2022-11-29T08:16:59.340Z,20.02
2022-11-29T08:19:25.881Z,22.50
2022-11-29T08:21:52.471Z,21.88
2022-11-29T08:24:18.910Z,19.65
2022-11-29T08:26:45.392Z,32.53
2022-11-29T08:29:11.859Z,30.02
2022-11-29T08:31:38.384Z,32.20
2022-11-29T08:34:06.379Z,29.58
2022-11-29T08:36:33.154Z,24.27
2022-11-29T08:39:08.899Z,30.20
2022-11-29T08:41:36.243Z,20.65
2022-11-29T08:44:04.790Z,25.02
2022-11-29T08:46:49.585Z,27.63
2022-11-29T08:49:16.370Z,28.20
2022-11-29T08:51:42.813Z,28.98
2022-11-29T08:54:09.478Z,25.83
2022-11-29T08:59:23.939Z,32.72
2022-11-29T09:01:50.462Z,25.98
2022-11-29T09:04:17.588Z,22.35
2022-11-29T09:06:44.411Z,23.60
2022-11-29T09:09:10.863Z,24.95
2022-11-29T09:11:37.318Z,33.75
2022-11-29T09:14:06.493Z,38.90
2022-11-29T09:16:36.166Z,22.00
2022-11-29T09:19:06.329Z,23.38
2022-11-29T09:21:36.456Z,28.38
2022-11-29T09:24:06.246Z,22.27
2022-11-29T09:26:35.146Z,21.17
2022-11-29T09:29:04.578Z,26.42
2022-11-29T09:31:31.868Z,19.50
2022-11-29T09:33:58.515Z,22.65
2022-11-29T09:36:28.410Z,17.52
2022-11-29T09:38:55.221Z,19.23
2022-11-29T09:41:52.643Z,21.65
2022-11-29T09:44:29.393Z,20.20
2022-11-29T09:47:47.663Z,23.00
2022-11-29T09:50:20.176Z,22.00
2022-11-29T09:53:14.592Z,23.95
2022-11-29T09:56:03.266Z,15.43
2022-11-29T09:58:36.919Z,19.73
2022-11-29T10:01:08.111Z,16.13
2022-11-29T10:03:40.626Z,130.23
2022-11-29T10:06:30.813Z,22.80
2022-11-29T10:09:12.166Z,20.08
2022-11-29T10:11:47.482Z,17.83
2022-11-29T10:14:23.005Z,21.45
2022-11-29T10:16:58.070Z,21.60
2022-11-29T10:19:45.976Z,20.40
2022-11-29T10:22:35.526Z,24.70
2022-11-29T10:25:03.376Z,13.25
2022-11-29T10:27:30.014Z,27.13
2022-11-29T10:29:59.189Z,22.45
2022-11-29T10:32:28.900Z,22.13
2022-11-29T10:34:58.531Z,25.75
2022-11-29T10:37:25.100Z,26.20
2022-11-29T10:40:00.021Z,19.08
2022-11-29T10:42:47.686Z,19.77
2022-11-29T10:45:31.638Z,19.77
2022-11-29T10:48:03.627Z,14.18
2022-11-29T10:50:36.927Z,20.67
2022-11-29T10:53:10.445Z,20.40
2022-11-29T10:55:50.865Z,20.58
2022-11-29T10:58:24.820Z,17.20
2022-11-29T11:01:20.357Z,20.13
2022-11-29T11:03:52.964Z,20.08
2022-11-29T11:06:24.172Z,18.77
2022-11-29T11:09:11.927Z,19.40
2022-11-29T11:11:39.415Z,17.67
2022-11-29T11:14:19.307Z,16.70
2022-11-29T11:16:45.785Z,19.52
2022-11-29T11:19:30.007Z,28.38
2022-11-29T11:21:58.431Z,18.95
2022-11-29T11:24:28.423Z,13.88
2022-11-29T11:26:55.420Z,21.77
2022-11-29T11:29:34.304Z,22.33
2022-11-29T11:32:00.899Z,20.52
2022-11-29T11:34:34.074Z,20.17
2022-11-29T11:37:15.538Z,18.42
2022-11-29T11:39:43.152Z,19.45
2022-11-29T11:42:38.022Z,19.17
2022-11-29T11:45:22.103Z,22.92
2022-11-29T11:47:54.844Z,18.88
2022-11-29T11:50:31.536Z,20.42
2022-11-29T11:53:03.794Z,21.60
2022-11-29T11:55:42.914Z,22.52
2022-11-29T11:58:12.053Z,18.17
2022-11-29T12:01:09.646Z,23.58
2022-11-29T12:03:45.699Z,22.67
2022-11-29T12:06:17.486Z,22.73
2022-11-29T12:11:16.353Z,319.75
2022-11-29T12:13:48.895Z,36.03
2022-11-29T12:16:27.342Z,15.75
2022-11-29T12:19:25.023Z,18.35
2022-11-29T12:21:59.608Z,22.48
2022-11-29T12:24:33.742Z,22.10
2022-11-29T12:27:04.827Z,20.73
2022-11-29T12:29:35.096Z,25.95
2022-11-29T12:32:13.783Z,18.55
2022-11-29T12:35:09.231Z,19.35
2022-11-29T12:38:07.837Z,22.25
2022-11-29T12:41:14.767Z,20.60
2022-11-29T12:43:53.274Z,22.10
2022-11-29T12:46:25.838Z,21.55
2022-11-29T12:49:10.703Z,17.67
2022-11-29T12:51:51.617Z,15.27
2022-11-29T12:54:29.626Z,19.35
2022-11-29T12:57:22.398Z,28.98
2022-11-29T13:00:01.151Z,28.83
2022-11-29T13:03:03.006Z,21.52
2022-11-29T13:06:01.760Z,23.42
2022-11-29T13:08:48.177Z,19.42
2022-11-29T13:11:27.378Z,18.10
2022-11-29T13:14:43.629Z,23.95
2022-11-29T13:17:29.389Z,17.33
2022-11-29T13:20:01.880Z,22.88
2022-11-29T13:22:38.704Z,20.42
2022-11-29T13:25:24.415Z,19.67
2022-11-29T13:28:14.113Z,17.30
2022-11-29T13:30:41.000Z,18.70
2022-11-29T13:33:27.407Z,20.60
2022-11-29T13:36:17.467Z,20.27
2022-11-29T13:38:43.923Z,20.38
2022-11-29T13:41:27.940Z,26.77
2022-11-29T13:44:08.783Z,18.02
2022-11-29T13:46:41.337Z,38.55
2022-11-29T13:49:20.359Z,20.35
2022-11-29T13:51:46.903Z,17.88
2022-11-29T13:54:30.648Z,16.52
2022-11-29T13:57:06.499Z,23.63
2022-11-29T13:59:36.919Z,17.65
2022-11-29T14:02:13.990Z,17.20
2022-11-29T14:04:45.883Z,14.02
2022-11-29T14:07:18.689Z,17.80
2022-11-29T14:09:47.989Z,17.90
2022-11-29T14:12:43.250Z,17.38
2022-11-29T14:15:28.199Z,15.98
2022-11-29T14:18:02.792Z,15.07
2022-11-29T14:20:29.176Z,16.58
2022-11-29T14:23:04.809Z,20.38
2022-11-29T14:28:18.447Z,13.57
2022-11-29T14:30:44.837Z,17.20
2022-11-29T14:33:38.838Z,12.50
2022-11-29T14:36:14.654Z,20.13
2022-11-29T14:38:59.535Z,18.55
2022-11-29T14:41:42.768Z,14.98
2022-11-29T14:44:30.978Z,19.73
2022-11-29T14:47:23.951Z,14.40
2022-11-29T14:49:52.875Z,17.33
2022-11-29T14:52:26.114Z,18.02
2022-11-29T14:55:07.786Z,18.65
2022-11-29T14:57:53.248Z,20.30
2022-11-29T15:00:27.250Z,19.58
2022-11-29T15:03:17.262Z,20.65
2022-11-29T15:05:46.299Z,24.90
2022-11-29T15:08:18.974Z,23.67
2022-11-29T15:11:11.473Z,24.00
2022-11-29T15:13:46.179Z,25.58
2022-11-29T15:16:18.216Z,20.73
2022-11-29T15:19:13.201Z,19.60
2022-11-29T15:21:48.521Z,25.90
2022-11-29T15:24:17.168Z,18.20
2022-11-29T15:27:01.379Z,18.98
2022-11-29T15:29:29.691Z,20.50
2022-11-29T15:32:03.410Z,21.85
2022-11-29T15:34:40.652Z,24.50
2022-11-29T15:37:20.733Z,18.98
2022-11-29T15:39:47.156Z,22.25
2022-11-29T15:42:15.815Z,24.83
2022-11-29T15:44:46.622Z,19.13
2022-11-29T15:47:16.003Z,25.77
2022-11-29T15:49:42.594Z,24.75
2022-11-29T15:52:18.529Z,24.77
2022-11-29T15:54:51.221Z,29.73
2022-11-29T15:57:33.536Z,24.98
2022-11-29T16:00:07.341Z,22.92
2022-11-29T16:02:38.170Z,20.88
2022-11-29T16:05:14.973Z,20.77
2022-11-29T16:07:42.766Z,21.25
2022-11-29T16:10:20.658Z,23.48
2022-11-29T16:13:02.190Z,22.02
2022-11-29T16:15:37.209Z,18.05
2022-11-29T16:18:05.722Z,29.20
2022-11-29T16:20:32.359Z,23.48
2022-11-29T16:23:07.891Z,28.90
2022-11-29T16:25:48.176Z,23.58
2022-11-29T16:28:14.787Z,23.05
2022-11-29T16:30:42.709Z,24.67
2022-11-29T16:33:19.920Z,25.45
2022-11-29T16:35:46.748Z,27.30
2022-11-29T16:38:31.405Z,30.60
2022-11-29T16:41:20.783Z,25.25
2022-11-29T16:43:50.683Z,38.30
2022-11-29T16:46:20.150Z,21.80
2022-11-29T16:48:50.187Z,25.85
2022-11-29T16:51:37.392Z,28.27
2022-11-29T16:54:34.384Z,21.55
2022-11-29T16:57:06.274Z,24.83
2022-11-29T17:01:59.468Z,22.90
2022-11-29T17:04:26.336Z,32.05
2022-11-29T17:06:54.767Z,25.88
2022-11-29T17:09:30.728Z,27.58
2022-11-29T17:11:59.849Z,27.67
2022-11-29T17:14:26.962Z,26.80
2022-11-29T17:16:53.530Z,25.27
2022-11-29T17:19:23.978Z,26.95
2022-11-29T17:21:51.873Z,23.48
2022-11-29T17:24:19.851Z,24.05
2022-11-29T17:26:46.320Z,23.40
2022-11-29T17:29:14.892Z,27.85
2022-11-29T17:31:43.624Z,24.40
2022-11-29T17:34:10.607Z,27.38
2022-11-29T17:36:37.868Z,23.40
2022-11-29T17:39:05.498Z,28.52
2022-11-29T17:41:32.855Z,28.45
2022-11-29T17:43:59.959Z,25.35
2022-11-29T17:46:27.622Z,24.92
2022-11-29T17:48:54.849Z,24.73
2022-11-29T17:54:11.029Z,30.65
2022-11-29T17:56:37.882Z,27.40
2022-11-29T17:59:05.288Z,26.70
2022-11-29T18:01:33.795Z,29.73
2022-11-29T18:04:02.873Z,23.73
2022-11-29T18:06:34.730Z,23.20
2022-11-29T18:09:01.809Z,26.98
2022-11-29T18:11:41.651Z,28.17
2022-11-29T18:14:13.653Z,25.70
2022-11-29T18:16:40.115Z,21.83
2022-11-29T18:19:09.307Z,28.95
2022-11-29T18:21:37.099Z,20.95
2022-11-29T18:24:05.351Z,27.08
2022-11-29T18:26:33.166Z,33.38
2022-11-29T18:29:00.031Z,36.17
2022-11-29T18:31:31.181Z,33.15
2022-11-29T18:34:00.262Z,31.20
2022-11-29T18:36:31.894Z,30.50
2022-11-29T18:39:00.929Z,29.80
2022-11-29T18:41:29.164Z,29.63
2022-11-29T18:44:01.618Z,23.73
2022-11-29T18:46:36.742Z,23.23
2022-11-29T18:49:06.486Z,17.48
2022-11-29T18:51:34.121Z,17.92
2022-11-29T18:54:01.252Z,15.85
2022-11-29T18:56:31.874Z,18.98
2022-11-29T18:59:04.078Z,19.00
2022-11-29T19:01:34.000Z,14.68
2022-11-29T19:04:01.672Z,15.27
2022-11-29T19:06:39.416Z,19.55
2022-11-29T19:09:11.526Z,21.48
2022-11-29T19:11:38.092Z,21.25
2022-11-29T19:14:10.955Z,20.77
2022-11-29T19:16:38.464Z,23.63
2022-11-29T19:19:05.079Z,20.90
2022-11-29T19:21:34.160Z,17.98
2022-11-29T19:24:02.863Z,14.45
2022-11-29T19:26:31.158Z,19.42
2022-11-29T19:28:57.839Z,14.18
2022-11-29T19:31:25.182Z,17.60
2022-11-29T19:33:52.532Z,17.30
2022-11-29T19:36:24.613Z,19.83
2022-11-29T19:38:53.676Z,19.40
2022-11-29T19:41:27.059Z,23.25
2022-11-29T19:43:55.950Z,21.25
2022-11-29T19:46:25.858Z,20.35
2022-11-29T19:48:54.075Z,22.52
2022-11-29T19:51:21.732Z,14.13
2022-11-29T19:53:52.112Z,17.13
2022-11-29T19:56:20.343Z,18.77
2022-11-29T19:58:47.185Z,16.88
2022-11-29T20:01:17.690Z,18.90
2022-11-29T20:03:47.354Z,17.40
2022-11-29T20:06:14.198Z,15.60
2022-11-29T20:08:41.571Z,15.43
2022-11-29T20:11:12.287Z,13.13
2022-11-29T20:13:39.862Z,13.85
2022-11-29T20:16:09.764Z,18.80
2022-11-29T20:18:39.242Z,16.45
2022-11-29T20:21:08.038Z,15.98
2022-11-29T20:23:34.788Z,14.63
2022-11-29T20:26:01.458Z,15.65
2022-11-29T20:28:28.289Z,20.02
2022-11-29T20:30:54.970Z,20.73
2022-11-29T20:33:24.235Z,24.58
2022-11-29T20:36:06.553Z,25.38
2022-11-29T20:38:43.638Z,19.88
2022-11-29T20:41:24.739Z,23.05
2022-11-29T20:43:56.200Z,16.67
2022-11-29T20:46:23.185Z,18.35
2022-11-29T20:48:50.946Z,25.67
2022-11-29T20:51:17.511Z,19.20
2022-11-29T20:53:46.116Z,16.33
2022-11-29T20:56:12.658Z,15.30
2022-11-29T20:58:39.106Z,14.90
2022-11-29T21:01:06.533Z,20.70
2022-11-29T21:03:33.377Z,17.65
2022-11-29T21:06:05.179Z,21.27
2022-11-29T21:11:05.922Z,12.07
2022-11-29T21:13:33.232Z,13.10
2022-11-29T21:16:00.329Z,14.70
2022-11-29T21:18:29.073Z,14.70
2022-11-29T21:21:20.536Z,10.27
2022-11-29T21:23:56.017Z,16.92
2022-11-29T21:26:41.590Z,12.32
2022-11-29T21:29:15.671Z,14.95
2022-11-29T21:31:42.906Z,14.95
2022-11-29T21:34:09.512Z,13.43
2022-11-29T21:36:37.227Z,15.80
2022-11-29T21:39:06.099Z,14.85
2022-11-29T21:41:32.543Z,9.50
2022-11-29T21:44:06.805Z,11.85
2022-11-29T21:46:34.805Z,16.52
2022-11-29T21:49:01.320Z,13.32
2022-11-29T21:51:27.766Z,13.65
2022-11-29T21:53:54.189Z,19.88
2022-11-29T21:56:20.681Z,14.82
2022-11-29T21:58:47.091Z,9.77
2022-11-29T22:01:15.883Z,19.20
2022-11-29T22:03:43.395Z,11.13
2022-11-29T22:06:23.986Z,9.07
2022-11-29T22:08:50.526Z,9.77
2022-11-29T22:11:30.703Z,13.75
2022-11-29T22:14:18.725Z,13.23
2022-11-29T22:16:57.004Z,11.88
2022-11-29T22:19:31.345Z,12.57
2022-11-29T22:21:59.989Z,12.80
2022-11-29T22:24:29.172Z,9.27
2022-11-29T22:26:56.333Z,9.60
2022-11-29T22:29:23.909Z,11.15
2022-11-29T22:31:53.079Z,13.90
2022-11-29T22:34:20.575Z,13.60
2022-11-29T22:36:46.991Z,15.60
2022-11-29T22:39:13.707Z,16.90
2022-11-29T22:41:40.744Z,14.95
2022-11-29T22:44:07.491Z,15.82
2022-11-29T22:46:40.980Z,14.90
2022-11-29T22:49:07.556Z,15.67
2022-11-29T22:51:36.166Z,16.90
2022-11-29T22:54:05.334Z,16.60
2022-11-29T22:56:37.627Z,17.02
2022-11-29T22:59:04.514Z,14.77
2022-11-29T23:01:33.359Z,18.65
2022-11-29T23:04:03.898Z,19.17
2022-11-29T23:06:33.226Z,16.50
2022-11-29T23:09:04.953Z,18.40
2022-11-29T23:11:31.691Z,18.60
2022-11-29T23:13:58.202Z,18.17
2022-11-29T23:16:27.209Z,17.35
2022-11-29T23:18:54.960Z,16.75
2022-11-29T23:21:24.377Z,21.38
2022-11-29T23:23:56.016Z,17.88
2022-11-29T23:26:26.123Z,22.00
2022-11-29T23:28:53.467Z,16.75
2022-11-29T23:31:21.371Z,17.85
2022-11-29T23:33:48.423Z,18.60
2022-11-29T23:36:15.805Z,20.88
2022-11-29T23:38:42.970Z,19.45
2022-11-29T23:41:09.777Z,19.98
2022-11-29T23:43:37.948Z,20.15
2022-11-29T23:46:14.560Z,17.60
2022-11-29T23:48:41.484Z,18.05
2022-11-29T23:51:07.948Z,22.15
2022-11-29T23:53:34.454Z,17.05
2022-11-29T23:56:03.607Z,17.23
2022-11-29T23:58:31.822Z,22.30
